Time;durP1;ratioP1;P1;durP2;ratioP2;P2;SDS_P1;SDS_P2;PMS_P1;PMS_P2;Temp;Humidity;BMP_temperature;BMP_pressure;BME280_temperature;BME280_humidity;BME280_pressure;Samples;Min_cycle;Max_cycle;Signal;HPM_P1;HPM_P2
2022/05/18 00:01:34;;;;;;;3.60;3.30;;;16.50;99.90;;;;;;503160;236;29233;-70
2022/05/18 00:03:35;;;;;;;3.40;3.10;;;16.50;99.90;;;;;;503113;236;29356;-70
2022/05/18 00:05:37;;;;;;;3.07;2.87;;;16.60;99.90;;;;;;503127;236;29257;-70
2022/05/18 00:07:38;;;;;;;3.20;2.40;;;16.60;99.90;;;;;;503130;236;28900;-70
2022/05/18 00:09:39;;;;;;;3.00;2.80;;;16.60;99.90;;;;;;503154;236;28795;-70
2022/05/18 00:11:40;;;;;;;3.33;3.00;;;16.50;99.90;;;;;;503141;236;28889;-69
2022/05/18 00:13:42;;;;;;;2.90;2.70;;;16.50;99.90;;;;;;503173;236;28755;-69
2022/05/18 00:15:43;;;;;;;2.80;2.60;;;16.50;99.90;;;;;;503086;236;29235;-70
2022/05/18 00:17:45;;;;;;;2.70;2.50;;;16.40;99.90;;;;;;503165;236;29294;-71
2022/05/18 00:19:46;;;;;;;2.50;2.30;;;16.40;99.90;;;;;;503138;236;28884;-71
2022/05/18 00:21:48;;;;;;;2.30;2.20;;;16.40;99.90;;;;;;503141;236;28863;-70
2022/05/18 00:23:49;;;;;;;2.60;2.40;;;16.30;99.90;;;;;;503102;236;29248;-73
2022/05/18 00:25:50;;;;;;;2.23;2.13;;;16.20;99.90;;;;;;503103;236;29209;-69
2022/05/18 00:27:51;;;;;;;2.00;1.90;;;16.20;99.90;;;;;;503150;236;29221;-70
2022/05/18 00:29:53;;;;;;;2.00;1.90;;;16.10;99.90;;;;;;503161;236;28797;-72
2022/05/18 00:31:54;;;;;;;2.30;2.20;;;15.90;99.90;;;;;;503160;236;28781;-70
2022/05/18 00:33:55;;;;;;;2.20;2.10;;;15.70;99.90;;;;;;503135;236;29277;-71
2022/05/18 00:36:00;;;;;;;2.00;1.90;;;15.60;99.90;;;;;;503090;236;28855;-70
2022/05/18 00:37:58;;;;;;;2.80;2.37;;;15.50;99.90;;;;;;502884;236;28774;-70
2022/05/18 00:39:59;;;;;;;2.10;2.00;;;15.50;99.90;;;;;;503135;236;28798;-71
2022/05/18 00:42:00;;;;;;;2.20;2.10;;;15.50;99.90;;;;;;503133;236;28813;-70
2022/05/18 00:44:01;;;;;;;2.10;2.00;;;15.50;99.90;;;;;;503141;236;28882;-70
2022/05/18 00:46:03;;;;;;;2.00;1.90;;;15.50;99.90;;;;;;503134;236;29749;-74
2022/05/18 00:48:05;;;;;;;2.23;2.03;;;15.60;99.90;;;;;;503147;236;29232;-70
2022/05/18 00:50:05;;;;;;;2.23;2.13;;;15.60;99.90;;;;;;503100;236;29774;-70
2022/05/18 00:52:07;;;;;;;2.33;2.23;;;15.50;99.90;;;;;;503146;236;29227;-70
2022/05/18 00:54:09;;;;;;;2.33;2.13;;;15.50;99.90;;;;;;503143;236;29227;-70
2022/05/18 00:56:10;;;;;;;2.17;2.07;;;15.50;99.90;;;;;;503137;236;28849;-70
2022/05/18 00:58:13;;;;;;;2.53;2.40;;;15.50;99.90;;;;;;503153;236;29255;-70
2022/05/18 01:00:14;;;;;;;1.90;1.80;;;15.50;99.90;;;;;;503146;236;28860;-70
2022/05/18 01:02:16;;;;;;;2.03;1.93;;;15.40;99.90;;;;;;503113;236;28809;-71
2022/05/18 01:04:17;;;;;;;2.10;2.00;;;15.30;99.90;;;;;;503153;236;29740;-73
2022/05/18 01:06:19;;;;;;;1.80;1.70;;;15.30;99.90;;;;;;503107;236;28744;-70
2022/05/18 01:08:23;;;;;;;2.20;2.10;;;15.20;99.90;;;;;;503064;236;28821;-73
2022/05/18 01:10:24;;;;;;;1.90;1.80;;;15.20;99.90;;;;;;503122;236;28798;-70
2022/05/18 01:12:25;;;;;;;1.80;1.70;;;15.10;99.90;;;;;;503166;236;28799;-70
2022/05/18 01:14:26;;;;;;;2.37;2.27;;;15.00;99.90;;;;;;503156;236;29247;-70
2022/05/18 01:16:28;;;;;;;2.10;2.00;;;14.90;99.90;;;;;;503127;236;29324;-70
2022/05/18 01:18:29;;;;;;;2.20;2.10;;;14.90;99.90;;;;;;503104;236;29211;-70
2022/05/18 01:20:30;;;;;;;2.40;2.30;;;14.80;99.90;;;;;;503101;236;28786;-71
2022/05/18 01:22:31;;;;;;;2.53;1.97;;;14.70;99.90;;;;;;503173;236;28863;-69
2022/05/18 01:24:33;;;;;;;2.33;2.20;;;14.60;99.90;;;;;;503125;236;28864;-70
2022/05/18 01:26:34;;;;;;;1.90;1.80;;;14.60;99.90;;;;;;503121;236;28824;-72
2022/05/18 01:28:35;;;;;;;2.23;2.13;;;14.60;99.90;;;;;;503103;236;28910;-70
2022/05/18 01:30:36;;;;;;;2.40;2.30;;;14.60;99.90;;;;;;503093;236;28805;-70
2022/05/18 01:32:38;;;;;;;2.03;1.93;;;14.60;99.90;;;;;;503148;236;28548;-75
2022/05/18 01:34:42;;;;;;;2.00;1.90;;;14.60;99.90;;;;;;503108;236;28752;-70
2022/05/18 01:36:40;;;;;;;2.53;2.33;;;14.60;99.90;;;;;;502944;236;28613;-70
2022/05/18 01:38:41;;;;;;;1.70;1.70;;;14.70;99.90;;;;;;503157;236;29177;-70
2022/05/18 01:40:43;;;;;;;2.40;2.20;;;14.70;99.90;;;;;;503139;236;29316;-70
2022/05/18 01:42:44;;;;;;;2.40;2.30;;;14.80;99.90;;;;;;503169;236;29048;-72
2022/05/18 01:44:45;;;;;;;2.33;2.17;;;14.90;99.90;;;;;;503149;236;29261;-70
2022/05/18 01:46:48;;;;;;;2.07;1.97;;;15.00;99.90;;;;;;503105;236;28818;-70
2022/05/18 01:48:48;;;;;;;2.47;2.27;;;14.90;99.90;;;;;;502993;236;28777;-70
2022/05/18 01:50:50;;;;;;;2.40;2.30;;;14.90;99.90;;;;;;503121;236;28757;-70
2022/05/18 01:52:50;;;;;;;2.50;2.30;;;15.00;99.90;;;;;;503106;236;29311;-71
2022/05/18 01:54:52;;;;;;;2.57;2.47;;;15.00;99.90;;;;;;503125;236;29207;-69
2022/05/18 01:56:53;;;;;;;2.67;2.47;;;15.00;99.90;;;;;;503048;236;29316;-70
2022/05/18 01:58:54;;;;;;;2.30;2.20;;;14.90;99.90;;;;;;503107;236;29304;-70
2022/05/18 02:00:55;;;;;;;2.13;2.03;;;14.90;99.90;;;;;;503130;236;28863;-70
2022/05/18 02:02:57;;;;;;;2.37;2.27;;;15.00;99.90;;;;;;503140;236;28903;-69
2022/05/18 02:04:58;;;;;;;2.63;2.53;;;15.10;99.90;;;;;;503092;236;28762;-70
2022/05/18 02:06:59;;;;;;;2.10;2.00;;;15.00;99.90;;;;;;503099;236;28816;-70
2022/05/18 02:09:00;;;;;;;2.53;2.33;;;15.10;99.90;;;;;;503108;236;28763;-69
2022/05/18 02:11:02;;;;;;;2.30;2.20;;;15.00;99.90;;;;;;503140;236;28848;-70
2022/05/18 02:13:03;;;;;;;2.17;2.07;;;14.90;99.90;;;;;;503121;236;28866;-70
2022/05/18 02:15:04;;;;;;;2.30;2.20;;;14.80;99.90;;;;;;503097;236;28768;-70
2022/05/18 02:17:05;;;;;;;2.50;2.30;;;14.80;99.90;;;;;;503086;236;28777;-70
2022/05/18 02:19:07;;;;;;;2.20;2.10;;;14.80;99.90;;;;;;503068;236;30141;-70
2022/05/18 02:21:08;;;;;;;2.10;2.00;;;14.80;99.90;;;;;;503149;236;29224;-69
2022/05/18 02:23:09;;;;;;;2.00;1.90;;;14.90;99.90;;;;;;503123;236;29304;-69
2022/05/18 02:25:10;;;;;;;2.10;2.00;;;14.90;99.90;;;;;;503091;236;28761;-70
2022/05/18 02:27:12;;;;;;;2.17;2.00;;;15.10;99.90;;;;;;503075;236;28895;-70
2022/05/18 02:29:13;;;;;;;2.20;2.07;;;15.20;99.90;;;;;;503086;236;28786;-70
2022/05/18 02:31:14;;;;;;;2.60;2.40;;;15.20;99.90;;;;;;503135;236;28749;-70
2022/05/18 02:33:15;;;;;;;2.33;2.13;;;15.20;99.90;;;;;;503138;236;28809;-70
2022/05/18 02:35:17;;;;;;;2.43;2.23;;;15.20;99.90;;;;;;503129;236;28497;-70
2022/05/18 02:37:18;;;;;;;3.30;2.30;;;15.20;99.90;;;;;;503119;236;28807;-70
2022/05/18 02:39:21;;;;;;;2.40;2.30;;;15.20;99.90;;;;;;503114;236;28767;-69
2022/05/18 02:41:20;;;;;;;2.33;2.13;;;15.20;99.90;;;;;;503068;236;28765;-70
2022/05/18 02:43:22;;;;;;;2.17;2.07;;;15.20;99.90;;;;;;503148;236;28808;-70
2022/05/18 02:45:23;;;;;;;2.50;2.30;;;15.10;99.90;;;;;;503132;236;28764;-71
2022/05/18 02:47:24;;;;;;;2.50;2.30;;;15.10;99.90;;;;;;503025;236;29279;-70
2022/05/18 02:49:25;;;;;;;2.00;1.90;;;15.10;99.90;;;;;;503111;236;29407;-71
2022/05/18 02:51:27;;;;;;;2.57;2.47;;;14.80;99.90;;;;;;503134;236;29230;-70
2022/05/18 02:53:28;;;;;;;2.47;2.37;;;14.30;99.90;;;;;;503133;236;28802;-70
2022/05/18 02:57:49;;;;;;;2.40;2.30;;;14.20;99.90;;;;;;503108;236;29232;-70
2022/05/18 02:59:50;;;;;;;2.30;2.20;;;14.30;99.90;;;;;;503110;236;28512;-71
2022/05/18 03:01:52;;;;;;;2.00;1.90;;;14.40;99.90;;;;;;503116;236;28788;-70
2022/05/18 03:03:53;;;;;;;2.03;1.93;;;14.30;99.90;;;;;;503088;236;28983;-69
2022/05/18 03:05:54;;;;;;;2.17;2.07;;;14.30;99.90;;;;;;503140;236;29275;-71
2022/05/18 03:07:58;;;;;;;2.47;2.30;;;14.40;99.90;;;;;;503130;236;29279;-70
2022/05/18 03:09:57;;;;;;;2.60;2.30;;;14.40;99.90;;;;;;502940;236;28830;-70
2022/05/18 03:11:58;;;;;;;1.97;1.87;;;14.40;99.90;;;;;;503117;236;28508;-69
2022/05/18 03:13:59;;;;;;;2.00;1.90;;;14.50;99.90;;;;;;503129;236;28783;-70
2022/05/18 03:16:00;;;;;;;2.53;2.33;;;14.50;99.90;;;;;;503142;236;28822;-73
2022/05/18 03:18:03;;;;;;;2.00;1.90;;;14.60;99.90;;;;;;503108;236;28453;-70
2022/05/18 03:20:04;;;;;;;2.10;2.00;;;14.60;99.90;;;;;;503150;236;28478;-70
2022/05/18 03:24:24;;;;;;;2.30;2.20;;;14.50;99.90;;;;;;503130;236;29375;-72
2022/05/18 03:26:26;;;;;;;2.53;2.40;;;14.50;99.90;;;;;;503184;236;28848;-70
2022/05/18 03:28:27;;;;;;;2.97;2.77;;;14.50;99.90;;;;;;503160;236;29319;-71
2022/05/18 03:30:28;;;;;;;2.73;2.53;;;14.40;99.90;;;;;;503156;236;29209;-69
2022/05/18 03:32:30;;;;;;;2.77;2.57;;;14.40;99.90;;;;;;503104;236;28869;-70
2022/05/18 03:34:33;;;;;;;3.03;2.80;;;14.30;99.90;;;;;;503161;236;28772;-70
2022/05/18 03:36:33;;;;;;;3.10;2.80;;;14.30;99.90;;;;;;503056;236;28373;-72
2022/05/18 03:38:34;;;;;;;3.50;3.20;;;14.40;99.90;;;;;;503134;236;28767;-69
2022/05/18 03:40:37;;;;;;;2.67;2.47;;;14.50;99.90;;;;;;503131;236;28505;-70
2022/05/18 03:42:37;;;;;;;2.40;2.30;;;14.40;99.90;;;;;;502939;236;28872;-69
2022/05/18 03:44:38;;;;;;;3.00;2.80;;;14.30;99.90;;;;;;503099;236;28790;-70
2022/05/18 03:46:39;;;;;;;2.87;2.67;;;14.30;99.90;;;;;;503088;236;28844;-69
2022/05/18 03:48:40;;;;;;;2.83;2.63;;;14.30;99.90;;;;;;503074;236;28859;-70
2022/05/18 03:50:42;;;;;;;2.50;2.30;;;14.40;99.90;;;;;;503091;236;28501;-70
2022/05/18 03:52:43;;;;;;;2.30;2.20;;;14.50;99.90;;;;;;503120;236;28910;-70
2022/05/18 03:54:44;;;;;;;2.40;2.30;;;14.50;99.90;;;;;;503146;236;28917;-70
2022/05/18 03:56:45;;;;;;;2.10;2.00;;;14.50;99.90;;;;;;503108;236;29370;-74
2022/05/18 03:58:47;;;;;;;2.33;2.20;;;14.60;99.90;;;;;;503099;236;28503;-70
2022/05/18 04:00:48;;;;;;;2.70;2.50;;;14.50;99.90;;;;;;503116;236;28904;-70
2022/05/18 04:02:49;;;;;;;2.40;2.20;;;14.20;99.90;;;;;;503109;236;28828;-70
2022/05/18 04:04:50;;;;;;;2.73;2.53;;;14.00;99.90;;;;;;503150;236;28485;-70
2022/05/18 04:06:52;;;;;;;2.40;2.30;;;13.90;99.90;;;;;;503127;236;28507;-71
2022/05/18 04:08:54;;;;;;;2.47;2.37;;;13.80;99.90;;;;;;503122;236;28137;-70
2022/05/18 04:10:54;;;;;;;2.67;2.47;;;13.70;99.90;;;;;;503106;236;28394;-71
2022/05/18 04:12:56;;;;;;;2.80;2.60;;;13.60;99.90;;;;;;503129;236;28543;-70
2022/05/18 04:14:57;;;;;;;2.40;2.17;;;13.70;99.90;;;;;;503096;236;28413;-70
2022/05/18 04:16:58;;;;;;;2.83;2.40;;;13.70;99.90;;;;;;503143;236;29027;-71
2022/05/18 04:18:59;;;;;;;2.30;2.20;;;13.80;99.90;;;;;;503144;236;28913;-70
2022/05/18 04:21:01;;;;;;;2.50;2.40;;;13.90;99.90;;;;;;503119;236;28978;-70
2022/05/18 04:23:02;;;;;;;2.10;1.90;;;14.00;99.90;;;;;;503091;236;28469;-70
2022/05/18 04:25:04;;;;;;;3.70;2.13;;;14.00;99.90;;;;;;503142;236;28765;-70
2022/05/18 04:27:06;;;;;;;2.03;1.93;;;14.00;99.90;;;;;;503148;236;28400;-72
2022/05/18 04:29:06;;;;;;;2.20;2.10;;;14.00;99.90;;;;;;503033;236;28772;-70
2022/05/18 04:31:07;;;;;;;2.40;2.30;;;14.10;99.90;;;;;;503094;236;28533;-70
2022/05/18 04:33:08;;;;;;;2.20;2.10;;;14.10;99.90;;;;;;503125;236;28231;-70
2022/05/18 04:35:09;;;;;;;2.10;2.00;;;14.10;99.90;;;;;;503155;236;28795;-70
2022/05/18 04:37:11;;;;;;;3.10;2.30;;;14.10;99.90;;;;;;503111;236;28559;-70
2022/05/18 04:39:12;;;;;;;2.50;2.40;;;14.20;99.90;;;;;;503135;236;28472;-70
2022/05/18 04:41:13;;;;;;;2.10;2.00;;;14.20;99.90;;;;;;503124;236;29290;-72
2022/05/18 04:43:14;;;;;;;2.33;2.23;;;14.20;99.90;;;;;;503095;236;29928;-70
2022/05/18 04:45:16;;;;;;;2.40;2.30;;;14.30;99.90;;;;;;503135;236;29306;-70
2022/05/18 04:47:17;;;;;;;2.17;2.03;;;14.20;99.90;;;;;;503147;236;28299;-71
2022/05/18 04:49:18;;;;;;;2.30;2.20;;;14.30;99.90;;;;;;503110;236;28789;-70
2022/05/18 04:51:19;;;;;;;2.10;2.00;;;14.30;99.90;;;;;;503131;236;29291;-70
2022/05/18 04:53:21;;;;;;;2.30;2.20;;;14.30;99.90;;;;;;503145;236;29462;-73
2022/05/18 04:55:22;;;;;;;2.43;2.23;;;14.30;99.90;;;;;;503130;236;28955;-70
2022/05/18 04:57:23;;;;;;;2.50;2.00;;;14.30;99.90;;;;;;503163;236;29016;-69
2022/05/18 04:59:24;;;;;;;2.50;2.40;;;14.30;99.90;;;;;;503105;236;28426;-69
2022/05/18 05:01:26;;;;;;;2.27;2.13;;;14.40;99.90;;;;;;503172;236;28477;-70
2022/05/18 05:03:27;;;;;;;2.40;2.30;;;14.50;99.90;;;;;;503123;236;28831;-74
2022/05/18 05:05:28;;;;;;;2.50;2.30;;;14.50;99.90;;;;;;503160;236;28770;-69
2022/05/18 05:07:29;;;;;;;2.40;2.20;;;14.60;99.90;;;;;;503108;236;28821;-70
2022/05/18 05:09:31;;;;;;;2.23;2.03;;;14.60;99.90;;;;;;503107;236;28771;-70
2022/05/18 05:11:32;;;;;;;2.23;2.13;;;14.70;99.90;;;;;;503102;236;28831;-70
2022/05/18 05:13:33;;;;;;;2.30;2.20;;;14.70;99.90;;;;;;502997;236;28899;-74
2022/05/18 05:15:34;;;;;;;2.43;2.33;;;14.70;99.90;;;;;;502877;236;29249;-70
2022/05/18 05:17:36;;;;;;;2.37;2.27;;;14.80;99.90;;;;;;502885;236;29279;-70
2022/05/18 05:19:37;;;;;;;2.33;2.23;;;14.80;99.90;;;;;;502994;236;28897;-70
2022/05/18 05:21:42;;;;;;;2.70;2.50;;;14.70;99.90;;;;;;502977;236;28824;-70
2022/05/18 05:23:42;;;;;;;2.37;2.27;;;14.70;99.90;;;;;;503108;236;28781;-70
2022/05/18 05:25:44;;;;;;;2.93;2.30;;;14.70;99.90;;;;;;503143;236;28867;-72
2022/05/18 05:27:45;;;;;;;2.83;2.63;;;14.70;99.90;;;;;;503112;236;28461;-70
2022/05/18 05:29:46;;;;;;;2.63;2.53;;;14.70;99.90;;;;;;503089;236;29280;-70
2022/05/18 05:31:47;;;;;;;2.43;2.30;;;14.70;99.90;;;;;;503112;236;30072;-70
2022/05/18 05:33:49;;;;;;;2.70;2.50;;;14.70;99.90;;;;;;503099;236;29294;-70
2022/05/18 05:35:50;;;;;;;2.90;2.70;;;14.80;99.90;;;;;;503145;236;28790;-71
2022/05/18 05:37:51;;;;;;;2.60;2.50;;;14.90;99.90;;;;;;503131;236;28744;-70
2022/05/18 05:39:52;;;;;;;2.50;2.40;;;15.00;99.90;;;;;;503121;236;28876;-70
2022/05/18 05:41:54;;;;;;;2.50;2.30;;;15.00;99.90;;;;;;503055;236;28849;-70
2022/05/18 05:43:55;;;;;;;2.70;2.60;;;15.10;99.90;;;;;;503153;236;28833;-70
2022/05/18 05:45:56;;;;;;;2.80;2.60;;;15.20;99.90;;;;;;503146;236;28805;-72
2022/05/18 05:47:58;;;;;;;2.30;2.20;;;15.30;99.90;;;;;;503136;236;28925;-70
2022/05/18 05:49:59;;;;;;;2.53;2.33;;;15.40;99.90;;;;;;503037;236;28812;-71
2022/05/18 05:52:00;;;;;;;2.50;2.30;;;15.50;99.90;;;;;;503101;236;28777;-70
2022/05/18 05:54:01;;;;;;;2.10;2.00;;;15.60;99.90;;;;;;503134;236;29254;-70
2022/05/18 05:56:02;;;;;;;2.20;2.10;;;15.70;99.90;;;;;;503130;236;29334;-70
2022/05/18 05:58:04;;;;;;;2.40;2.23;;;15.80;99.90;;;;;;503128;236;29205;-70
2022/05/18 06:00:05;;;;;;;2.30;2.20;;;15.90;99.90;;;;;;503121;236;28899;-70
2022/05/18 06:02:07;;;;;;;2.27;2.13;;;16.00;99.90;;;;;;503113;236;28769;-69
2022/05/18 06:04:07;;;;;;;2.40;2.20;;;16.20;99.90;;;;;;503077;236;28801;-70
2022/05/18 06:06:10;;;;;;;2.23;2.13;;;16.40;99.90;;;;;;503135;236;28785;-70
2022/05/18 06:08:10;;;;;;;2.10;2.00;;;16.60;99.90;;;;;;503051;236;28757;-70
2022/05/18 06:10:11;;;;;;;1.87;1.77;;;16.70;99.90;;;;;;503104;236;28816;-71
2022/05/18 06:12:12;;;;;;;2.17;2.07;;;16.70;99.90;;;;;;503099;236;28765;-70
2022/05/18 06:14:14;;;;;;;2.03;1.93;;;16.70;99.90;;;;;;503138;236;28753;-70
2022/05/18 06:16:15;;;;;;;2.50;2.40;;;16.70;99.90;;;;;;503142;236;28787;-73
2022/05/18 06:18:16;;;;;;;2.53;2.37;;;16.80;99.90;;;;;;503074;236;29239;-70
2022/05/18 06:20:17;;;;;;;2.00;1.90;;;17.00;99.90;;;;;;503160;236;29449;-70
2022/05/18 06:22:19;;;;;;;2.40;2.30;;;17.20;99.90;;;;;;503150;236;29590;-70
2022/05/18 06:24:20;;;;;;;2.53;2.10;;;17.40;99.90;;;;;;503159;236;29213;-71
2022/05/18 06:26:21;;;;;;;2.23;2.07;;;17.60;99.90;;;;;;503151;236;28800;-70
2022/05/18 06:28:22;;;;;;;5.20;2.30;;;17.80;99.90;;;;;;503132;236;28784;-71
2022/05/18 06:30:24;;;;;;;2.30;2.20;;;17.90;99.90;;;;;;503111;236;28811;-71
2022/05/18 06:32:25;;;;;;;2.27;2.17;;;17.90;99.90;;;;;;503174;236;29690;-73
2022/05/18 06:34:26;;;;;;;2.13;2.03;;;18.10;99.90;;;;;;503186;236;29230;-71
2022/05/18 06:36:28;;;;;;;2.27;2.17;;;18.30;99.90;;;;;;503148;236;29262;-71
2022/05/18 06:38:29;;;;;;;2.40;2.30;;;18.40;99.90;;;;;;503138;236;28764;-70
2022/05/18 06:42:49;;;;;;;2.13;2.03;;;18.80;99.90;;;;;;503163;236;28781;-75
2022/05/18 06:44:50;;;;;;;2.87;2.67;;;18.70;99.90;;;;;;503150;236;28782;-71
2022/05/18 06:46:52;;;;;;;2.70;2.50;;;18.90;99.90;;;;;;503157;236;28799;-71
2022/05/18 06:48:53;;;;;;;3.23;2.40;;;19.00;99.90;;;;;;503176;236;28762;-71
2022/05/18 06:50:54;;;;;;;3.57;3.27;;;19.10;99.90;;;;;;503146;236;29270;-71
2022/05/18 06:52:55;;;;;;;3.90;2.50;;;19.20;99.90;;;;;;503193;236;29249;-73
2022/05/18 06:54:57;;;;;;;2.53;2.43;;;19.20;99.90;;;;;;503161;236;29246;-70
2022/05/18 06:56:58;;;;;;;2.60;2.50;;;19.20;99.90;;;;;;503144;236;28802;-72
2022/05/18 06:58:59;;;;;;;2.63;2.43;;;19.30;99.90;;;;;;503137;236;28769;-70
2022/05/18 07:01:01;;;;;;;2.80;2.60;;;19.40;99.90;;;;;;503163;236;28767;-70
2022/05/18 07:03:02;;;;;;;2.40;2.20;;;19.40;99.90;;;;;;503150;236;28784;-73
2022/05/18 07:05:03;;;;;;;2.30;2.20;;;19.40;99.90;;;;;;503122;236;28867;-70
2022/05/18 07:07:04;;;;;;;2.40;2.30;;;19.50;99.90;;;;;;503131;236;28806;-70
2022/05/18 07:09:05;;;;;;;2.33;2.13;;;19.40;99.90;;;;;;503041;236;28770;-71
2022/05/18 07:11:07;;;;;;;2.13;2.03;;;19.40;99.90;;;;;;503148;236;28786;-71
2022/05/18 07:13:08;;;;;;;2.10;2.00;;;19.40;99.90;;;;;;503149;236;28809;-74
2022/05/18 07:15:09;;;;;;;2.50;2.40;;;19.40;99.90;;;;;;503133;236;29334;-70
2022/05/18 07:17:11;;;;;;;2.30;2.20;;;19.40;99.90;;;;;;503126;236;29314;-70
2022/05/18 07:19:12;;;;;;;2.23;2.10;;;19.30;99.90;;;;;;503114;236;29219;-71
2022/05/18 07:21:13;;;;;;;2.20;2.10;;;19.30;99.90;;;;;;503127;236;28840;-70
2022/05/18 07:23:14;;;;;;;2.30;2.10;;;19.40;99.90;;;;;;503134;236;28868;-73
2022/05/18 07:25:16;;;;;;;2.30;2.20;;;19.50;99.90;;;;;;503141;236;28878;-71
2022/05/18 07:27:17;;;;;;;2.10;2.00;;;19.70;99.90;;;;;;503031;236;28798;-71
2022/05/18 07:29:18;;;;;;;2.50;2.30;;;19.70;99.90;;;;;;503123;236;28785;-70
2022/05/18 07:31:22;;;;;;;2.40;2.30;;;19.80;99.90;;;;;;503119;236;28766;-71
2022/05/18 07:33:24;;;;;;;2.23;2.13;;;19.70;99.90;;;;;;503138;236;28772;-71
2022/05/18 07:35:24;;;;;;;2.03;1.93;;;19.60;99.90;;;;;;503113;236;29279;-73
2022/05/18 07:37:26;;;;;;;2.83;2.37;;;19.60;99.90;;;;;;503104;236;28845;-71
2022/05/18 07:39:30;;;;;;;2.33;2.13;;;19.70;99.90;;;;;;503112;236;28801;-70
2022/05/18 07:41:31;;;;;;;2.07;1.97;;;19.90;99.90;;;;;;503102;236;28779;-71
2022/05/18 07:43:33;;;;;;;2.30;2.20;;;20.00;99.90;;;;;;503148;236;29266;-75
2022/05/18 07:45:35;;;;;;;2.23;2.13;;;20.10;99.90;;;;;;503097;236;29241;-71
2022/05/18 07:47:35;;;;;;;2.67;2.47;;;20.40;99.90;;;;;;503028;236;29249;-71
2022/05/18 07:49:36;;;;;;;2.13;2.03;;;20.60;99.90;;;;;;503114;236;28762;-70
2022/05/18 07:51:38;;;;;;;2.43;2.33;;;20.50;99.90;;;;;;503094;236;28832;-70
2022/05/18 07:53:39;;;;;;;2.20;2.10;;;20.40;99.90;;;;;;503126;236;28869;-74
2022/05/18 07:55:40;;;;;;;2.10;2.00;;;20.50;99.90;;;;;;503096;236;28756;-70
2022/05/18 07:57:41;;;;;;;2.53;2.27;;;20.60;99.90;;;;;;503099;236;28877;-72
2022/05/18 07:59:43;;;;;;;2.37;2.27;;;20.80;99.90;;;;;;503046;236;28841;-71
2022/05/18 08:01:44;;;;;;;3.00;2.40;;;20.90;99.90;;;;;;503004;236;28772;-71
2022/05/18 08:03:45;;;;;;;2.50;2.40;;;20.90;99.90;;;;;;503111;236;28791;-74
2022/05/18 08:05:46;;;;;;;2.20;2.10;;;20.80;99.90;;;;;;503092;236;28749;-71
2022/05/18 08:07:48;;;;;;;2.37;2.20;;;20.80;99.90;;;;;;503101;236;29311;-71
2022/05/18 08:16:47;;;;;;;5.40;2.67;;;21.00;99.90;;;;;;493444;240;28933;-71
2022/05/18 08:18:46;;;;;;;2.77;2.60;;;21.30;99.90;;;;;;493415;241;28867;-71
2022/05/18 08:20:48;;;;;;;3.20;3.00;;;21.30;99.90;;;;;;493407;241;28881;-71
2022/05/18 08:22:48;;;;;;;3.13;2.93;;;21.10;99.90;;;;;;493407;241;28966;-71
2022/05/18 08:24:50;;;;;;;2.63;2.53;;;21.20;99.90;;;;;;493439;241;29341;-75
2022/05/18 08:26:51;;;;;;;2.27;2.10;;;21.10;99.90;;;;;;493421;241;29292;-71
2022/05/18 08:28:52;;;;;;;2.30;2.20;;;21.00;99.90;;;;;;493422;241;29352;-73
2022/05/18 08:30:55;;;;;;;2.53;2.43;;;20.90;99.90;;;;;;493419;241;28824;-71
2022/05/18 08:32:55;;;;;;;2.47;2.17;;;20.80;99.90;;;;;;493330;241;29016;-72
2022/05/18 08:34:56;;;;;;;2.60;2.50;;;21.00;99.90;;;;;;493389;241;28902;-74
2022/05/18 08:36:58;;;;;;;2.60;2.40;;;21.10;99.90;;;;;;493386;241;28940;-71
2022/05/18 08:38:58;;;;;;;2.50;2.40;;;21.30;99.90;;;;;;493443;241;28941;-71
2022/05/18 08:41:00;;;;;;;2.30;2.20;;;21.50;99.90;;;;;;493402;241;28833;-70
2022/05/18 08:43:01;;;;;;;3.43;2.00;;;21.70;99.90;;;;;;493417;241;29003;-71
2022/05/18 08:45:03;;;;;;;2.50;2.40;;;21.80;99.90;;;;;;493431;241;28867;-75
2022/05/18 08:47:05;;;;;;;2.73;2.53;;;21.70;99.90;;;;;;493445;241;28873;-71
2022/05/18 08:49:05;;;;;;;2.33;2.13;;;21.50;99.90;;;;;;493440;241;29323;-72
2022/05/18 08:51:06;;;;;;;2.37;2.17;;;21.40;99.90;;;;;;494733;236;29301;-71
2022/05/18 08:53:07;;;;;;;2.00;1.90;;;21.30;99.90;;;;;;503089;236;29384;-71
2022/05/18 08:55:08;;;;;;;2.13;2.03;;;21.50;99.90;;;;;;503094;236;28809;-75
2022/05/18 08:57:10;;;;;;;2.30;2.20;;;21.60;99.90;;;;;;503088;236;28850;-71
2022/05/18 08:59:11;;;;;;;2.40;2.20;;;21.70;99.90;;;;;;503097;236;28818;-72
2022/05/18 09:01:12;;;;;;;2.63;2.43;;;21.80;99.90;;;;;;503070;236;28762;-71
2022/05/18 09:03:15;;;;;;;2.20;2.10;;;21.90;99.90;;;;;;503067;236;28776;-71
2022/05/18 09:05:15;;;;;;;2.43;2.33;;;21.90;99.90;;;;;;503041;236;28886;-74
2022/05/18 09:07:16;;;;;;;3.70;2.53;;;22.20;99.90;;;;;;503100;236;28781;-71
2022/05/18 09:11:37;;;;;;;2.27;2.17;;;22.60;99.90;;;;;;503080;236;28753;-70
2022/05/18 09:13:38;;;;;;;2.70;2.47;;;22.50;99.90;;;;;;503102;236;29346;-71
2022/05/18 09:15:39;;;;;;;2.23;2.10;;;22.50;99.90;;;;;;503091;236;29277;-73
2022/05/18 09:17:40;;;;;;;2.90;2.70;;;22.60;99.90;;;;;;503075;236;29208;-71
2022/05/18 09:19:42;;;;;;;2.70;2.53;;;22.70;99.90;;;;;;503097;236;28796;-71
2022/05/18 09:21:43;;;;;;;3.67;2.57;;;22.70;99.90;;;;;;503114;236;28833;-71
2022/05/18 09:23:44;;;;;;;2.27;2.10;;;22.50;99.90;;;;;;503109;236;28856;-72
2022/05/18 09:25:45;;;;;;;2.10;2.00;;;22.70;99.90;;;;;;503087;236;28793;-73
2022/05/18 09:27:47;;;;;;;2.60;2.40;;;22.70;99.90;;;;;;503087;236;28820;-71
2022/05/18 09:29:48;;;;;;;2.47;2.27;;;22.90;99.90;;;;;;503078;236;28807;-71
2022/05/18 09:31:49;;;;;;;2.63;2.43;;;22.90;99.90;;;;;;503072;236;28776;-71
2022/05/18 09:33:50;;;;;;;2.53;2.40;;;23.20;99.90;;;;;;503089;236;28879;-71
2022/05/18 09:35:52;;;;;;;2.17;2.07;;;23.10;99.90;;;;;;503101;236;28795;-73
2022/05/18 09:37:53;;;;;;;2.63;2.20;;;23.10;99.90;;;;;;503084;236;29200;-72
2022/05/18 09:39:54;;;;;;;2.23;2.03;;;23.10;99.90;;;;;;503063;236;29259;-72
2022/05/18 09:41:56;;;;;;;2.30;2.10;;;23.20;99.90;;;;;;503074;236;30324;-72
2022/05/18 09:43:57;;;;;;;2.30;2.20;;;23.20;99.90;;;;;;503056;236;28868;-71
2022/05/18 09:45:58;;;;;;;2.20;2.10;;;23.20;99.90;;;;;;503107;236;28799;-72
2022/05/18 09:47:59;;;;;;;3.43;2.40;;;23.30;99.90;;;;;;503099;236;28757;-71
2022/05/18 09:50:00;;;;;;;2.80;2.60;;;23.30;99.90;;;;;;503020;236;28803;-71
2022/05/18 09:52:02;;;;;;;3.17;2.87;;;23.30;99.90;;;;;;503086;236;28798;-71
2022/05/18 09:54:03;;;;;;;3.03;2.73;;;23.70;99.90;;;;;;503065;236;28766;-71
2022/05/18 09:56:04;;;;;;;2.70;2.50;;;23.50;99.90;;;;;;503104;236;28808;-72
2022/05/18 09:58:05;;;;;;;2.57;2.37;;;23.40;99.90;;;;;;503074;236;28757;-71
2022/05/18 10:00:07;;;;;;;2.67;2.50;;;23.10;99.90;;;;;;503087;236;28881;-71
2022/05/18 10:09:06;;;;;;;3.30;2.13;;;23.10;99.90;;;;;;503092;236;28872;-72
2022/05/18 10:11:09;;;;;;;2.90;2.70;;;23.40;99.90;;;;;;502971;236;29223;-71
2022/05/18 10:13:09;;;;;;;3.03;2.10;;;23.60;99.90;;;;;;503033;236;29238;-71
2022/05/18 10:15:10;;;;;;;2.70;2.50;;;23.80;99.90;;;;;;503126;236;29377;-74
2022/05/18 10:17:11;;;;;;;2.07;1.97;;;23.90;99.90;;;;;;503049;236;29224;-71
2022/05/18 10:19:13;;;;;;;2.70;2.50;;;23.70;99.90;;;;;;503132;236;28789;-72
2022/05/18 10:21:14;;;;;;;2.50;2.30;;;23.50;99.90;;;;;;503079;236;28772;-71
2022/05/18 10:23:15;;;;;;;2.70;2.50;;;23.70;99.90;;;;;;503098;236;28782;-71
2022/05/18 10:25:17;;;;;;;2.20;2.10;;;23.80;99.90;;;;;;503059;236;28806;-72
2022/05/18 10:27:19;;;;;;;1.90;1.80;;;23.90;99.90;;;;;;503127;236;28829;-74
2022/05/18 10:29:20;;;;;;;3.03;2.43;;;24.00;99.90;;;;;;503111;236;28762;-71
2022/05/18 10:31:21;;;;;;;2.83;2.50;;;24.00;99.90;;;;;;503098;236;29275;-71
2022/05/18 10:33:22;;;;;;;2.70;2.50;;;24.20;99.90;;;;;;503111;236;29482;-71
2022/05/18 10:35:24;;;;;;;2.33;2.23;;;24.20;99.90;;;;;;503123;236;29370;-71
2022/05/18 10:37:25;;;;;;;2.60;2.50;;;24.20;99.90;;;;;;503124;236;28856;-73
2022/05/18 10:39:26;;;;;;;2.50;2.40;;;24.00;99.90;;;;;;503129;236;28751;-71
2022/05/18 10:41:28;;;;;;;3.07;2.40;;;24.30;99.90;;;;;;503131;236;28785;-71
2022/05/18 10:43:29;;;;;;;2.70;2.50;;;24.30;99.90;;;;;;503160;236;28839;-75
2022/05/18 10:45:31;;;;;;;2.70;2.50;;;24.20;99.90;;;;;;503118;236;28853;-72
2022/05/18 10:47:31;;;;;;;2.60;2.30;;;24.30;99.90;;;;;;503109;236;28837;-73
2022/05/18 10:49:32;;;;;;;3.60;2.40;;;24.50;99.90;;;;;;503102;236;28865;-72
2022/05/18 10:51:34;;;;;;;2.53;2.33;;;24.30;99.90;;;;;;503062;236;28799;-72
2022/05/18 10:53:35;;;;;;;2.33;2.13;;;24.40;99.90;;;;;;503097;236;29322;-75
2022/05/18 10:55:36;;;;;;;2.57;2.37;;;24.30;99.90;;;;;;503045;236;29213;-71